Portada
METAR-TAF:

METAR-TAF

Aeropuertos :

East London, Sudáfrica

latitud: 33-02S, longitud: 027-50E, altitud: 125 m

Observación

El informe se hizo hace 26 minutos, a las 08:00 UTC
Viento 9 kt del noreste, variando entre norte-noreste y este
Temperatura 23°C
Humedad 78%
Presión 1022 hPa
Visibilidad 10 km o más
Nubes dispersas a una altura de 1900 ft
Cielo nuboso a una altura de 2600 ft

METAR: FAEL 160800Z 05009KT 020V080 9999 SCT019 BKN026 23/19 Q1022

Hora: 10:26 (08:26 UTC)

Pronóstico

El informe se hizo hace 2 horas y 26 minutos, a las 06:00 UTC
Pronóstico válido del 16 a las 07 UTC al 16 a las 18 UTC
Viento 5 kt del noreste
Visibilidad 10 km o más
sin nubes por debajo de 1500 m y sin presencia de cumulonimbus.
Evolucionando progresivamente
del 16 a las 08 UTC al 16 a las 10 UTC
Viento 18 kt del noreste

TAF: FAEL 160600Z 1607/1618 04005KT CAVOK TX26/1612Z TN19/1618Z BECMG 1608/1610 04018KT

Observaciones y pronósticos meteorológicos de más de 4000 aeropuertos (mensajes METAR y TAF).

Los puntos amarillos y rojos representan las estaciones disponibles.

Ponga el ratón en el punto deseado para ver el nombre de la estación.

Haga clic para ver las observaciones y los pronósticos meteorológicos.

Para cambiar el mapa : haga clic en los botones verdes con una cruz de color negro para hacer un zoom, en el botón verde con un guión para alejar o en las flechas verdes para mapas adyacentes.


METAR-TAF: